Time;durP1;ratioP1;P1;durP2;ratioP2;P2;SDS_P1;SDS_P2;PMS_P1;PMS_P2;Temp;Humidity;BMP_temperature;BMP_pressure;BME280_temperature;BME280_humidity;BME280_pressure;Samples;Min_cycle;Max_cycle;Signal;HPM_P1;HPM_P2
2022/01/02 00:02:09;;;;;;;14.82;4.78;;;;;;;10.41;83.64;101640.03;4983599;28;20069;-79
2022/01/02 00:04:36;;;;;;;17.73;5.05;;;;;;;10.42;83.50;101633.72;5012893;28;20039;-79
2022/01/02 00:07:05;;;;;;;17.02;5.22;;;;;;;10.43;83.65;101646.22;5013811;28;20033;-78
2022/01/02 00:09:37;;;;;;;15.85;5.25;;;;;;;10.43;83.33;101652.44;5021461;28;20053;-79
2022/01/02 00:12:05;;;;;;;14.43;4.82;;;;;;;10.44;83.56;101662.25;4996206;28;20374;-79
2022/01/02 00:14:34;;;;;;;18.55;5.15;;;;;;;10.46;83.33;101667.53;4993759;28;20120;-79
2022/01/02 00:17:04;;;;;;;18.30;5.15;;;;;;;10.48;83.26;101661.09;5009987;28;20038;-78
2022/01/02 00:19:32;;;;;;;16.40;5.00;;;;;;;10.51;83.13;101669.94;4995950;28;20084;-78
2022/01/02 00:22:03;;;;;;;17.00;5.10;;;;;;;10.50;83.01;101658.31;5019003;28;20018;-79
2022/01/02 00:24:31;;;;;;;17.05;4.85;;;;;;;10.53;83.67;101662.63;5025449;28;20545;-78
2022/01/02 00:26:57;;;;;;;15.77;5.03;;;;;;;10.53;83.12;101654.56;5019876;28;20028;-78
2022/01/02 00:29:23;;;;;;;16.90;4.75;;;;;;;10.55;83.09;101652.66;5019761;28;20041;-78
2022/01/02 00:31:50;;;;;;;13.57;4.70;;;;;;;10.56;83.31;101636.44;5017841;28;20037;-79
2022/01/02 00:34:17;;;;;;;16.48;5.07;;;;;;;10.57;84.12;101638.19;4995531;28;20030;-79
2022/01/02 00:36:42;;;;;;;13.02;3.92;;;;;;;10.58;84.29;101639.03;5002781;28;20044;-79
2022/01/02 00:39:08;;;;;;;14.68;4.57;;;;;;;10.59;85.29;101649.69;4996464;28;20502;-79
2022/01/02 00:41:46;;;;;;;14.50;4.75;;;;;;;10.60;84.99;101646.06;5020975;28;20029;-78
2022/01/02 00:44:38;;;;;;;18.60;5.13;;;;;;;10.58;86.06;101655.16;4997372;28;20456;-79
2022/01/02 00:47:18;;;;;;;15.02;4.90;;;;;;;10.54;87.07;101642.88;5003594;28;20571;-78
2022/01/02 00:49:58;;;;;;;14.75;4.60;;;;;;;10.52;86.99;101655.53;5010590;28;20032;-78
2022/01/02 00:52:26;;;;;;;14.32;4.50;;;;;;;10.48;88.26;101650.34;4991909;28;20121;-78
2022/01/02 00:54:55;;;;;;;15.73;4.68;;;;;;;10.47;88.55;101642.38;5015830;28;20124;-78
2022/01/02 00:57:30;;;;;;;15.40;5.15;;;;;;;10.42;89.49;101631.88;5022633;28;20037;-78
2022/01/02 01:00:10;;;;;;;14.88;4.53;;;;;;;10.37;90.64;101631.31;5013897;28;20094;-78
2022/01/02 01:02:47;;;;;;;15.20;4.82;;;;;;;10.32;90.36;101618.13;5014583;28;20037;-78
2022/01/02 01:05:19;;;;;;;17.33;5.32;;;;;;;10.28;91.12;101627.31;4999231;28;20108;-78
2022/01/02 01:07:46;;;;;;;19.25;5.45;;;;;;;10.26;91.08;101623.00;4992297;28;20041;-78
2022/01/02 01:10:12;;;;;;;17.02;5.35;;;;;;;10.23;91.54;101612.44;4996581;28;20052;-78
2022/01/02 01:12:38;;;;;;;15.07;4.78;;;;;;;10.21;91.60;101604.47;4994800;28;20030;-78
2022/01/02 01:15:06;;;;;;;19.60;5.50;;;;;;;10.17;91.94;101608.28;5000646;28;20025;-78
2022/01/02 01:17:32;;;;;;;16.63;5.38;;;;;;;10.14;92.73;101609.31;5020814;28;20033;-78
2022/01/02 01:19:58;;;;;;;17.17;4.95;;;;;;;10.13;92.98;101607.63;5014524;28;20312;-78
2022/01/02 01:22:23;;;;;;;16.17;5.50;;;;;;;10.11;93.25;101604.13;4992015;28;20386;-78
2022/01/02 01:24:49;;;;;;;17.52;4.97;;;;;;;10.09;93.01;101587.25;5021204;28;20444;-78
2022/01/02 01:27:14;;;;;;;16.85;5.35;;;;;;;10.08;93.18;101592.72;5022069;28;20358;-78
2022/01/02 01:29:40;;;;;;;19.50;5.97;;;;;;;10.07;93.73;101590.97;5023136;28;20045;-78
2022/01/02 01:32:07;;;;;;;15.50;4.63;;;;;;;10.05;93.53;101587.53;4998099;28;20033;-78
2022/01/02 01:34:33;;;;;;;18.13;5.05;;;;;;;10.03;94.08;101584.06;5012307;28;20052;-78
2022/01/02 01:36:58;;;;;;;14.65;5.03;;;;;;;10.04;94.08;101583.13;5010230;28;20057;-78
2022/01/02 01:39:24;;;;;;;20.38;5.57;;;;;;;10.01;94.00;101573.41;5002804;28;20095;-78
2022/01/02 01:41:52;;;;;;;18.30;5.07;;;;;;;10.01;93.92;101572.56;5002568;28;20104;-78
2022/01/02 01:46:45;;;;;;;16.40;5.18;;;;;;;9.98;93.83;101565.53;5023690;28;20080;-78
2022/01/02 01:49:20;;;;;;;17.67;5.40;;;;;;;9.98;94.53;101568.22;5010579;28;20029;-78
2022/01/02 01:51:46;;;;;;;19.67;6.22;;;;;;;9.96;94.16;101568.31;5024811;28;20033;-78
2022/01/02 01:54:11;;;;;;;19.42;6.07;;;;;;;9.95;94.55;101568.41;5020494;28;20056;-78
2022/01/02 01:56:38;;;;;;;20.83;5.15;;;;;;;9.96;94.04;101554.88;5010775;28;20017;-78
2022/01/02 01:59:04;;;;;;;15.70;5.68;;;;;;;9.96;93.80;101554.03;4992015;28;20378;-78
2022/01/02 02:01:30;;;;;;;17.33;5.22;;;;;;;9.96;93.95;101545.97;4995589;28;20041;-82
2022/01/02 02:03:56;;;;;;;15.75;5.20;;;;;;;9.94;94.48;101551.44;4991539;28;20046;-82
2022/01/02 02:06:21;;;;;;;17.15;5.47;;;;;;;9.94;94.48;101546.06;4996270;28;20041;-81
2022/01/02 02:08:47;;;;;;;17.90;5.82;;;;;;;9.92;94.31;101526.47;5017893;28;20049;-82
2022/01/02 02:11:13;;;;;;;18.45;5.88;;;;;;;9.92;94.66;101521.13;5013998;28;20058;-82
2022/01/02 02:13:39;;;;;;;18.80;5.25;;;;;;;9.92;94.17;101512.22;5014497;28;20065;-82
2022/01/02 02:16:05;;;;;;;19.35;5.30;;;;;;;9.94;94.43;101511.16;5014738;28;20101;-82
2022/01/02 02:18:30;;;;;;;16.60;5.00;;;;;;;9.95;94.46;101510.19;4998637;28;20042;-81
2022/01/02 02:20:55;;;;;;;19.33;6.00;;;;;;;9.96;94.23;101513.75;5006566;28;20030;-82
2022/01/02 02:23:20;;;;;;;16.55;5.20;;;;;;;9.99;94.08;101510.88;4998045;28;20409;-82
2022/01/02 02:25:46;;;;;;;16.00;5.03;;;;;;;10.00;94.51;101509.94;4996743;28;20022;-82
2022/01/02 02:28:13;;;;;;;22.25;5.93;;;;;;;10.00;94.51;101499.19;4998561;28;20049;-82
2022/01/02 02:30:42;;;;;;;15.68;4.82;;;;;;;10.01;93.99;101495.53;4996123;28;20044;-82
2022/01/02 02:33:08;;;;;;;16.10;4.90;;;;;;;10.01;94.28;101492.84;4990707;28;20037;-82
2022/01/02 02:35:36;;;;;;;16.77;5.25;;;;;;;10.01;94.13;101492.84;4991164;28;20050;-82
2022/01/02 02:38:03;;;;;;;17.77;5.68;;;;;;;10.01;94.64;101500.91;4989818;28;20029;-82
2022/01/02 02:40:29;;;;;;;18.70;5.25;;;;;;;10.02;94.65;101497.28;4996868;28;20063;-82
2022/01/02 02:43:00;;;;;;;22.42;5.30;;;;;;;10.03;94.53;101490.06;4993970;28;20038;-82
2022/01/02 02:51:07;;;;;;;22.40;5.55;;;;;;;10.03;94.55;101468.59;5008733;28;20095;-81
2022/01/02 02:53:34;;;;;;;18.77;6.05;;;;;;;10.03;94.55;101464.09;4972140;28;20034;-82
2022/01/02 02:56:00;;;;;;;21.08;5.55;;;;;;;10.02;94.38;101465.03;4983507;28;20040;-82
2022/01/02 03:01:01;;;;;;;17.23;5.20;;;;;;;10.03;95.10;101465.91;5019827;28;20033;-82
2022/01/02 03:03:26;;;;;;;16.08;5.63;;;;;;;10.03;95.16;101464.09;5017806;28;20048;-82
2022/01/02 03:05:52;;;;;;;18.15;5.82;;;;;;;10.04;94.94;101468.47;5006504;28;20649;-82
2022/01/02 03:08:17;;;;;;;17.30;6.22;;;;;;;10.05;95.11;101467.53;5015474;28;20058;-82
2022/01/02 03:10:42;;;;;;;16.17;5.63;;;;;;;10.06;94.72;101465.69;5016220;28;20084;-82
2022/01/02 03:13:08;;;;;;;16.67;5.60;;;;;;;10.08;94.86;101459.28;5025232;28;20025;-82
2022/01/02 03:15:33;;;;;;;16.23;5.38;;;;;;;10.09;94.88;101454.81;4999457;28;20017;-82
2022/01/02 03:17:58;;;;;;;16.90;5.07;;;;;;;10.08;94.86;101453.91;5000314;28;20052;-82
2022/01/02 03:20:23;;;;;;;22.55;6.05;;;;;;;10.09;95.22;101468.22;5012572;28;20060;-82
2022/01/02 03:22:49;;;;;;;19.98;6.10;;;;;;;10.10;94.96;101462.75;5014542;28;20087;-82
2022/01/02 03:25:14;;;;;;;18.00;5.70;;;;;;;10.10;95.24;101459.19;4995174;28;20029;-82
2022/01/02 03:27:41;;;;;;;19.73;6.07;;;;;;;10.10;95.58;101456.50;4998761;28;20040;-82
2022/01/02 03:30:07;;;;;;;21.75;5.60;;;;;;;10.09;95.43;101452.97;5023930;28;20119;-82
2022/01/02 03:32:33;;;;;;;16.67;5.45;;;;;;;10.09;95.29;101455.66;4997216;28;20374;-82
2022/01/02 03:34:58;;;;;;;17.17;5.93;;;;;;;10.08;95.66;101464.66;4993821;28;20026;-82
2022/01/02 03:37:28;;;;;;;21.08;5.80;;;;;;;10.08;95.77;101470.03;5011722;28;20061;-82
2022/01/02 03:39:53;;;;;;;19.98;5.78;;;;;;;10.08;95.96;101470.03;5011437;28;20030;-82
2022/01/02 03:42:18;;;;;;;22.00;6.38;;;;;;;10.07;95.76;101462.94;4996011;28;20104;-82
2022/01/02 03:44:44;;;;;;;19.55;5.57;;;;;;;10.08;96.19;101461.97;4993525;28;20116;-82
2022/01/02 03:47:09;;;;;;;18.70;5.82;;;;;;;10.07;95.99;101457.59;5021937;28;20042;-81
2022/01/02 03:49:34;;;;;;;19.05;5.60;;;;;;;10.08;95.94;101442.31;4995305;28;20061;-82
2022/01/02 03:52:00;;;;;;;19.58;6.13;;;;;;;10.06;96.12;101449.59;5003579;28;20055;-82
2022/01/02 03:54:25;;;;;;;17.02;5.82;;;;;;;10.07;95.95;101437.91;4996540;28;20417;-82
2022/01/02 03:56:53;;;;;;;18.40;5.32;;;;;;;10.06;96.15;101434.34;5011995;28;20088;-82
2022/01/02 03:59:18;;;;;;;20.75;5.88;;;;;;;10.07;95.72;101425.34;4993802;28;20033;-82
2022/01/02 04:01:44;;;;;;;23.20;5.60;;;;;;;10.08;95.76;101427.06;5007978;28;20533;-82
2022/01/02 04:04:09;;;;;;;17.52;5.25;;;;;;;10.08;95.96;101413.63;5010944;28;20241;-81
2022/01/02 04:06:34;;;;;;;24.17;5.65;;;;;;;10.09;95.55;101404.63;5003100;28;20040;-82
2022/01/02 04:08:59;;;;;;;16.95;5.20;;;;;;;10.12;95.16;101395.53;4993627;28;20508;-82
2022/01/02 04:11:25;;;;;;;18.25;5.97;;;;;;;10.14;95.24;101399.81;5014268;28;20032;-81
2022/01/02 04:13:50;;;;;;;17.25;5.05;;;;;;;10.17;95.15;101405.97;5010916;28;20032;-82
2022/01/02 04:16:15;;;;;;;17.77;4.82;;;;;;;10.15;95.16;101401.53;4995285;28;20029;-82
2022/01/02 04:18:40;;;;;;;19.67;5.30;;;;;;;10.17;94.82;101403.28;5010601;28;20101;-82
2022/01/02 04:21:06;;;;;;;20.10;5.53;;;;;;;10.17;94.87;101403.28;5013773;28;20029;-82
2022/01/02 04:23:31;;;;;;;16.40;5.47;;;;;;;10.18;94.88;101405.03;5010973;28;20510;-82
2022/01/02 04:25:56;;;;;;;18.20;4.75;;;;;;;10.16;94.99;101402.41;5011658;28;20040;-81
2022/01/02 04:28:21;;;;;;;20.33;5.25;;;;;;;10.17;95.00;101404.13;4995636;28;20091;-81
2022/01/02 04:30:47;;;;;;;17.63;5.38;;;;;;;10.17;95.11;101408.66;5009904;28;20124;-81
2022/01/02 04:33:12;;;;;;;18.27;5.07;;;;;;;10.15;95.26;101398.84;4991534;28;20037;-81
2022/01/02 04:35:37;;;;;;;17.00;5.72;;;;;;;10.15;95.53;101406.91;4992812;28;20375;-81
2022/01/02 04:38:03;;;;;;;19.67;5.43;;;;;;;10.12;95.72;101391.00;4994553;28;20030;-81
2022/01/02 04:40:28;;;;;;;16.77;5.07;;;;;;;10.11;95.73;101389.25;5014103;28;20056;-81
2022/01/02 04:42:53;;;;;;;17.90;5.75;;;;;;;10.09;95.77;101379.59;4997443;28;20056;-81
2022/01/02 04:45:19;;;;;;;16.08;5.18;;;;;;;10.09;96.03;101372.41;5011217;28;20069;-81
2022/01/02 04:47:44;;;;;;;20.15;5.72;;;;;;;10.07;96.27;101374.31;4996052;28;20083;-81
2022/01/02 04:50:09;;;;;;;14.32;5.05;;;;;;;10.05;96.87;101353.88;5002299;28;20112;-82
2022/01/02 04:52:34;;;;;;;21.00;6.15;;;;;;;10.04;96.92;101354.84;4991554;28;20339;-81
2022/01/02 04:55:00;;;;;;;13.25;4.90;;;;;;;10.00;97.09;101340.75;4993131;28;20076;-81
2022/01/02 04:57:25;;;;;;;22.42;5.25;;;;;;;9.99;97.07;101335.47;4992452;28;20064;-81
2022/01/02 04:59:50;;;;;;;18.50;6.38;;;;;;;9.97;97.03;101335.56;5009839;28;20075;-81
2022/01/02 05:02:16;;;;;;;20.35;5.85;;;;;;;9.96;97.06;101305.16;5008851;28;20478;-81
2022/01/02 05:04:41;;;;;;;20.30;6.10;;;;;;;9.95;96.94;101303.44;5015945;28;20029;-81
2022/01/02 05:07:07;;;;;;;18.02;5.63;;;;;;;9.96;96.67;101302.47;5008888;28;20030;-81
2022/01/02 05:09:33;;;;;;;19.48;5.57;;;;;;;9.96;96.89;101301.63;4991045;28;20045;-81
2022/01/02 05:11:58;;;;;;;16.67;5.53;;;;;;;9.99;96.83;101297.88;5019729;28;20385;-81
2022/01/02 05:14:23;;;;;;;19.02;5.57;;;;;;;9.96;96.99;101289.06;5004277;28;20096;-81
2022/01/02 05:16:49;;;;;;;15.48;4.65;;;;;;;9.95;96.82;101281.94;5021089;28;20040;-82
2022/01/02 05:19:14;;;;;;;15.98;4.60;;;;;;;9.94;96.83;101284.72;5010085;28;20194;-81
2022/01/02 05:21:39;;;;;;;18.20;5.45;;;;;;;9.93;96.78;101291.09;4995968;28;20500;-81
2022/01/02 05:24:05;;;;;;;14.23;5.15;;;;;;;9.91;97.16;101280.44;4998548;28;20450;-81
2022/01/02 05:26:31;;;;;;;21.63;5.50;;;;;;;9.92;96.92;101275.94;5004881;28;20127;-81
2022/01/02 05:28:56;;;;;;;17.48;5.50;;;;;;;9.91;96.93;101274.19;5000634;28;20418;-81
2022/01/02 05:31:21;;;;;;;17.25;5.65;;;;;;;9.92;96.98;101278.63;4993520;28;20022;-82
2022/01/02 05:33:47;;;;;;;18.25;4.90;;;;;;;9.90;97.07;101262.59;5009958;28;20061;-81
2022/01/02 05:36:12;;;;;;;19.77;4.97;;;;;;;9.90;97.19;101261.75;4996657;28;20033;-81
2022/01/02 05:38:37;;;;;;;18.17;5.18;;;;;;;9.89;96.97;101260.00;4992981;28;20029;-81
2022/01/02 05:41:02;;;;;;;21.10;5.40;;;;;;;9.88;96.82;101253.78;5022997;28;20053;-81
2022/01/02 05:43:29;;;;;;;15.10;4.65;;;;;;;9.87;97.03;101253.88;4996815;28;20025;-81
2022/01/02 05:45:55;;;;;;;16.42;4.43;;;;;;;9.87;97.06;101245.81;5010457;28;20030;-81
2022/01/02 05:48:20;;;;;;;17.05;5.68;;;;;;;9.85;96.99;101242.38;5008974;28;20034;-81
2022/01/02 05:50:46;;;;;;;17.65;5.80;;;;;;;9.85;97.14;101237.00;4990823;28;20029;-81
2022/01/02 05:53:11;;;;;;;21.17;5.80;;;;;;;9.84;96.79;101229.91;4992328;28;20084;-81
2022/01/02 05:55:37;;;;;;;15.05;5.03;;;;;;;9.84;96.73;101219.16;5009936;28;20040;-81
2022/01/02 05:58:02;;;;;;;16.35;5.40;;;;;;;9.86;96.57;101212.75;5014921;28;20141;-81
2022/01/02 06:00:28;;;;;;;18.77;5.70;;;;;;;9.86;96.20;101193.94;5011641;28;20064;-81
2022/01/02 06:02:53;;;;;;;21.52;5.20;;;;;;;9.88;96.43;101188.47;4990559;28;20030;-81
2022/01/02 06:05:18;;;;;;;15.70;5.22;;;;;;;9.84;96.09;101178.91;5016647;28;20031;-81
2022/01/02 06:07:44;;;;;;;14.70;4.93;;;;;;;9.85;96.05;101172.56;5005944;28;20053;-81
2022/01/02 06:10:09;;;;;;;16.85;5.38;;;;;;;9.85;96.10;101177.94;5011802;28;20066;-82
2022/01/02 06:12:34;;;;;;;18.63;5.45;;;;;;;9.86;96.06;101171.63;5016159;28;20088;-82
2022/01/02 06:15:00;;;;;;;15.60;5.38;;;;;;;9.87;95.91;101162.59;5009567;28;20402;-82
2022/01/02 06:17:25;;;;;;;14.77;4.78;;;;;;;9.86;95.59;101155.50;4999996;28;20029;-81
2022/01/02 06:19:50;;;;;;;15.85;4.93;;;;;;;9.86;95.35;101148.31;4996806;28;20988;-82
2022/01/02 06:22:16;;;;;;;15.23;4.35;;;;;;;9.85;95.76;101132.31;5004401;28;20026;-82
2022/01/02 06:24:42;;;;;;;18.50;4.90;;;;;;;9.83;95.69;101121.66;5008611;28;20034;-82
2022/01/02 06:27:07;;;;;;;15.60;4.05;;;;;;;9.84;95.44;101109.09;5003957;28;20083;-82
2022/01/02 06:29:33;;;;;;;16.92;4.70;;;;;;;9.82;94.85;101100.28;5003605;28;20026;-81
2022/01/02 06:31:59;;;;;;;15.20;4.10;;;;;;;9.83;95.08;101099.34;4996030;28;20045;-82
2022/01/02 06:34:24;;;;;;;16.92;4.35;;;;;;;9.83;95.45;101091.28;5009975;28;20029;-82
2022/01/02 06:36:50;;;;;;;15.98;4.55;;;;;;;9.82;94.71;101065.41;4995040;28;20041;-81
2022/01/02 06:39:15;;;;;;;13.68;4.53;;;;;;;9.82;94.71;101070.78;4993589;28;20033;-81
2022/01/02 06:41:40;;;;;;;14.13;4.70;;;;;;;9.81;94.65;101061.88;5003168;28;20041;-82
2022/01/02 06:44:05;;;;;;;16.55;5.00;;;;;;;9.79;94.56;101048.56;4994732;28;20022;-82
2022/01/02 06:46:31;;;;;;;15.63;4.43;;;;;;;9.79;94.24;101027.06;5014213;28;20038;-82
2022/01/02 06:48:56;;;;;;;13.35;4.05;;;;;;;9.79;94.34;101019.03;4998965;28;20053;-82
2022/01/02 06:51:21;;;;;;;16.98;4.32;;;;;;;9.79;93.48;101024.41;5010522;28;20397;-81
2022/01/02 06:53:47;;;;;;;12.20;4.20;;;;;;;9.79;93.95;101024.41;4998650;28;20073;-82
2022/01/02 06:56:12;;;;;;;16.50;4.57;;;;;;;9.78;93.54;101022.66;5019895;28;20038;-82
2022/01/02 06:58:38;;;;;;;13.77;4.18;;;;;;;9.79;93.77;101019.03;5012638;28;20029;-81
2022/01/02 07:01:05;;;;;;;12.45;4.22;;;;;;;9.79;93.38;101016.34;5003644;28;20053;-81
2022/01/02 07:03:30;;;;;;;12.38;4.13;;;;;;;9.79;93.40;101002.91;4993978;28;20109;-82
2022/01/02 07:05:55;;;;;;;10.88;3.63;;;;;;;9.80;93.15;101010.00;4994262;28;20494;-82
2022/01/02 07:08:21;;;;;;;13.18;4.13;;;;;;;9.81;92.26;101000.13;5001774;28;20229;-82
2022/01/02 07:10:46;;;;;;;10.85;3.85;;;;;;;9.81;91.92;101013.56;4991588;28;20348;-82
2022/01/02 07:13:11;;;;;;;12.73;4.30;;;;;;;9.83;91.91;101014.28;4990913;28;20022;-81
2022/01/02 07:15:36;;;;;;;14.45;3.83;;;;;;;9.84;92.92;101013.34;5001641;28;20033;-82
2022/01/02 07:18:02;;;;;;;16.33;4.22;;;;;;;9.84;91.97;101021.41;4992014;28;20530;-82
2022/01/02 07:20:27;;;;;;;12.80;3.63;;;;;;;9.85;92.15;101038.34;4997297;28;20072;-82
2022/01/02 07:22:52;;;;;;;13.18;3.97;;;;;;;9.85;91.67;101022.25;4998285;28;20030;-82
2022/01/02 07:25:18;;;;;;;15.30;4.15;;;;;;;9.87;92.03;101020.31;4997426;28;20042;-82
2022/01/02 07:27:43;;;;;;;9.63;3.40;;;;;;;9.85;91.42;101000.78;4993045;28;20049;-81
2022/01/02 07:30:09;;;;;;;14.77;4.63;;;;;;;9.84;91.98;100999.03;4992717;28;20062;-82
2022/01/02 07:32:37;;;;;;;18.38;4.45;;;;;;;9.82;91.73;100987.56;4994193;28;20034;-82
2022/01/02 07:35:06;;;;;;;14.20;4.25;;;;;;;9.80;91.29;100993.88;5001031;28;20030;-81
2022/01/02 07:37:31;;;;;;;12.77;3.78;;;;;;;9.80;91.24;100999.25;4989964;28;20037;-81
2022/01/02 07:39:57;;;;;;;15.45;4.15;;;;;;;9.79;91.17;100997.56;4993566;28;20026;-81
2022/01/02 07:42:22;;;;;;;14.45;4.20;;;;;;;9.83;91.43;101000.03;4999515;28;20438;-82
2022/01/02 07:44:47;;;;;;;15.88;4.38;;;;;;;9.85;90.39;100987.34;5006460;28;20057;-82
2022/01/02 07:47:13;;;;;;;11.52;3.63;;;;;;;9.89;89.39;101004.97;4987990;28;20030;-81
2022/01/02 07:49:38;;;;;;;14.98;4.57;;;;;;;9.91;89.24;101009.28;4991828;28;20022;-82
2022/01/02 07:52:03;;;;;;;13.10;4.57;;;;;;;9.94;90.50;101006.38;4995409;28;20038;-81
2022/01/02 07:54:29;;;;;;;12.27;3.95;;;;;;;9.93;90.12;101019.91;4998945;28;20137;-82
2022/01/02 07:56:54;;;;;;;13.38;4.30;;;;;;;9.92;91.48;101031.59;4991728;28;20348;-81
2022/01/02 07:59:19;;;;;;;14.85;4.30;;;;;;;9.89;91.44;101034.50;4992915;28;20041;-82
2022/01/02 08:01:46;;;;;;;11.93;4.13;;;;;;;9.88;91.51;101044.38;4991522;28;20038;-82
2022/01/02 08:04:11;;;;;;;14.90;4.10;;;;;;;9.88;91.11;101027.41;4995990;28;20084;-81
2022/01/02 08:06:36;;;;;;;16.20;4.13;;;;;;;9.88;91.34;101020.22;4992504;28;20045;-81
2022/01/02 08:09:02;;;;;;;11.85;3.58;;;;;;;9.88;90.19;101019.34;4991079;28;20050;-81
2022/01/02 08:11:28;;;;;;;12.85;4.35;;;;;;;9.90;90.15;101029.03;4991251;28;20445;-81
2022/01/02 08:13:53;;;;;;;12.65;4.50;;;;;;;9.91;90.64;101027.19;4997383;28;20030;-81
2022/01/02 08:16:18;;;;;;;19.63;4.82;;;;;;;9.92;90.99;101035.13;4996508;28;20088;-81
2022/01/02 08:18:44;;;;;;;10.30;3.60;;;;;;;9.93;90.58;101036.88;5011340;28;20044;-81
2022/01/02 08:21:09;;;;;;;13.65;4.00;;;;;;;9.94;90.37;101043.09;5006437;28;20534;-81
2022/01/02 08:23:34;;;;;;;13.10;3.97;;;;;;;9.95;90.50;101050.19;5002729;28;20030;-81
2022/01/02 08:26:00;;;;;;;10.70;3.72;;;;;;;9.97;89.76;101034.81;4996356;28;20555;-81
2022/01/02 08:28:26;;;;;;;8.95;3.35;;;;;;;9.98;90.39;101012.38;5001839;28;20038;-81
2022/01/02 08:30:51;;;;;;;9.32;3.30;;;;;;;9.98;89.51;101007.00;4996083;28;20415;-81
2022/01/02 08:33:17;;;;;;;10.70;3.45;;;;;;;9.99;89.97;101040.97;4994166;28;20033;-81
2022/01/02 08:35:43;;;;;;;12.80;3.70;;;;;;;10.00;88.94;101042.69;5009318;28;20041;-81
2022/01/02 08:38:09;;;;;;;17.02;4.63;;;;;;;10.02;88.42;101029.16;5002155;28;20453;-81
2022/01/02 08:40:36;;;;;;;15.82;4.05;;;;;;;10.02;88.88;101037.22;4994015;28;20029;-81
2022/01/02 08:43:01;;;;;;;10.57;3.58;;;;;;;10.01;87.73;101033.66;5005903;28;20030;-81
2022/01/02 08:45:26;;;;;;;13.80;3.88;;;;;;;10.03;87.15;101037.13;5014629;28;20450;-81
2022/01/02 08:47:52;;;;;;;15.05;3.63;;;;;;;10.10;86.58;101029.47;4998864;28;20089;-82
2022/01/02 08:50:17;;;;;;;10.70;3.75;;;;;;;10.13;86.43;101038.22;5000125;28;20117;-81
2022/01/02 08:52:42;;;;;;;9.50;3.33;;;;;;;10.17;86.42;101049.59;4992248;28;20105;-82
2022/01/02 08:55:08;;;;;;;13.00;4.10;;;;;;;10.21;86.04;101053.78;4994556;28;20026;-82
2022/01/02 08:57:33;;;;;;;11.88;3.63;;;;;;;10.25;84.81;101052.63;4993266;28;20018;-82
2022/01/02 08:59:58;;;;;;;13.20;4.47;;;;;;;10.27;84.52;101047.13;4994117;28;20034;-81
2022/01/02 09:02:24;;;;;;;13.60;4.32;;;;;;;10.29;85.00;101042.50;5004331;28;20092;-82
2022/01/02 09:04:49;;;;;;;13.60;4.20;;;;;;;10.30;85.00;101046.94;4992680;28;20026;-82
2022/01/02 09:07:14;;;;;;;16.13;4.57;;;;;;;10.30;85.12;101036.19;4991398;28;20030;-82
2022/01/02 09:09:40;;;;;;;17.27;4.47;;;;;;;10.35;84.32;101034.03;4992099;28;20061;-82
2022/01/02 09:12:06;;;;;;;13.35;4.13;;;;;;;10.38;84.88;101028.50;4993486;28;20030;-82
2022/01/02 09:14:32;;;;;;;13.20;4.30;;;;;;;10.42;84.41;101035.34;4993580;28;20047;-81
2022/01/02 09:16:57;;;;;;;12.00;4.38;;;;;;;10.46;84.08;101039.53;4992444;28;20034;-81
2022/01/02 09:19:22;;;;;;;16.80;4.93;;;;;;;10.51;84.61;101035.69;4993007;28;20049;-82
2022/01/02 09:21:47;;;;;;;16.60;4.50;;;;;;;10.54;84.75;101030.09;4995190;28;20030;-82
2022/01/02 09:24:13;;;;;;;15.60;5.28;;;;;;;10.60;83.92;101035.03;4995080;28;20037;-82
2022/01/02 09:26:38;;;;;;;15.88;4.50;;;;;;;10.64;84.68;101041.91;4993561;28;20437;-82
2022/01/02 09:29:04;;;;;;;13.80;4.70;;;;;;;10.72;84.34;101044.03;4993231;28;20053;-82
2022/01/02 09:31:29;;;;;;;14.27;5.18;;;;;;;10.76;84.19;101040.19;5005130;28;20053;-81
2022/01/02 09:33:54;;;;;;;15.95;5.20;;;;;;;10.83;83.96;101042.34;4993324;28;20027;-82
2022/01/02 09:36:20;;;;;;;17.73;5.85;;;;;;;10.89;84.10;101038.31;4994625;28;20038;-82
2022/01/02 09:38:45;;;;;;;15.05;5.45;;;;;;;10.92;83.83;101037.25;4991969;28;20045;-81
2022/01/02 09:41:10;;;;;;;14.32;5.18;;;;;;;10.95;83.91;101056.72;4991096;28;20184;-82
2022/01/02 09:43:36;;;;;;;18.75;5.72;;;;;;;10.98;83.00;101050.25;4991595;28;20034;-81
2022/01/02 09:46:03;;;;;;;18.02;5.60;;;;;;;10.97;82.95;101054.78;4991024;28;20513;-82
2022/01/02 09:48:29;;;;;;;16.27;5.28;;;;;;;10.98;83.10;101044.88;4996014;28;20478;-82
2022/01/02 09:50:55;;;;;;;17.48;5.93;;;;;;;10.96;82.71;101057.59;5004394;28;20505;-82
2022/01/02 09:53:20;;;;;;;18.48;5.70;;;;;;;10.93;82.36;101063.19;4994477;28;20120;-81
2022/01/02 09:55:46;;;;;;;17.88;5.82;;;;;;;10.92;82.56;101061.44;4996255;28;20061;-82
2022/01/02 09:58:12;;;;;;;16.58;5.47;;;;;;;10.91;82.88;101059.72;4996116;28;20079;-81
2022/01/02 10:00:40;;;;;;;18.17;5.57;;;;;;;10.94;82.66;101056.84;5002035;28;20034;-82
2022/01/02 10:03:10;;;;;;;16.70;5.40;;;;;;;10.96;82.72;101053.06;4994733;28;20022;-82
2022/01/02 10:05:52;;;;;;;18.90;5.60;;;;;;;11.01;82.44;101061.66;4992001;28;20038;-82
2022/01/02 10:08:20;;;;;;;22.08;5.68;;;;;;;11.12;82.59;101070.78;4995298;28;20068;-82
2022/01/02 10:10:45;;;;;;;17.35;5.38;;;;;;;11.22;81.91;101065.63;4997005;28;20077;-82
2022/01/02 10:13:11;;;;;;;14.88;5.43;;;;;;;11.31;82.74;101083.78;5009067;28;20026;-82
2022/01/02 10:15:36;;;;;;;15.45;4.80;;;;;;;11.33;81.72;101080.00;4994250;28;20153;-81
2022/01/02 10:18:03;;;;;;;19.25;5.85;;;;;;;11.35;81.52;101069.13;4997209;28;20351;-81
2022/01/02 10:20:32;;;;;;;17.42;5.18;;;;;;;11.36;81.27;101065.44;4994262;28;20094;-81
2022/01/02 10:23:11;;;;;;;16.08;5.50;;;;;;;11.37;82.14;101064.47;4996496;28;20113;-81
2022/01/02 10:25:41;;;;;;;17.55;5.72;;;;;;;11.38;82.20;101058.13;4996898;28;20031;-81
2022/01/02 10:28:26;;;;;;;19.08;5.70;;;;;;;11.42;82.17;101056.06;4995495;28;20054;-82
2022/01/02 10:31:14;;;;;;;18.33;5.97;;;;;;;11.47;82.23;101054.75;5005505;28;20445;-82
2022/01/02 10:33:54;;;;;;;19.13;5.60;;;;;;;11.49;82.17;101044.75;5015182;28;20084;-81
2022/01/02 10:36:25;;;;;;;;;;;;;;;11.51;81.24;101048.19;4995223;28;20034;-80
2022/01/02 10:39:11;;;;;;;17.75;5.28;;;;;;;11.49;81.47;101033.09;4998096;28;19960;-82
2022/01/02 10:41:41;;;;;;;14.60;5.00;;;;;;;11.51;81.47;101040.09;4995433;28;20045;-82
2022/01/02 10:44:22;;;;;;;20.75;5.78;;;;;;;11.50;80.81;101046.44;4995573;28;20104;-82
2022/01/02 10:47:14;;;;;;;18.83;5.45;;;;;;;11.51;81.88;101048.19;4991077;28;20034;-82
2022/01/02 10:50:02;;;;;;;15.80;5.03;;;;;;;11.51;82.90;101042.78;4993020;28;20034;-81
2022/01/02 10:52:40;;;;;;;20.17;5.00;;;;;;;11.53;82.75;101038.16;4985901;28;20081;-82
2022/01/02 10:55:15;;;;;;;12.98;4.60;;;;;;;11.56;81.92;101039.75;4997885;28;20030;-82
2022/01/02 10:57:47;;;;;;;17.77;5.07;;;;;;;11.57;81.45;101035.22;4997172;28;20026;-82
2022/01/02 11:00:13;;;;;;;16.77;5.13;;;;;;;11.57;81.71;101041.47;5000672;28;20176;-81
2022/01/02 11:02:39;;;;;;;18.27;4.72;;;;;;;11.58;81.84;101047.72;4998291;28;20101;-82
2022/01/02 11:05:10;;;;;;;18.98;5.50;;;;;;;11.60;81.35;101043.09;4995015;28;20121;-82
2022/01/02 11:07:45;;;;;;;19.40;5.70;;;;;;;11.60;81.67;101030.47;4996304;28;20030;-82
2022/01/02 11:10:14;;;;;;;19.27;5.18;;;;;;;11.62;81.73;101038.44;4993924;28;20047;-82
2022/01/02 11:12:41;;;;;;;17.00;5.40;;;;;;;11.60;81.55;101027.78;4990574;28;20386;-82
2022/01/02 11:15:09;;;;;;;16.88;4.90;;;;;;;11.57;82.13;101035.22;4991279;28;20599;-82
2022/01/02 11:17:35;;;;;;;15.77;4.93;;;;;;;11.61;81.45;101036.72;4976101;28;20439;-82
2022/01/02 11:20:06;;;;;;;16.13;5.43;;;;;;;11.68;82.23;101035.28;4976125;28;20030;-81
2022/01/02 11:22:41;;;;;;;17.98;4.90;;;;;;;11.79;81.85;101040.72;4975181;28;20047;-82
2022/01/02 11:25:29;;;;;;;18.70;5.53;;;;;;;11.89;82.27;101035.50;4982463;28;20046;-82
2022/01/02 11:28:03;;;;;;;14.82;4.82;;;;;;;11.95;81.41;101040.47;4984770;28;20133;-82
2022/01/02 11:30:28;;;;;;;18.13;4.88;;;;;;;12.02;81.58;101030.06;4997223;28;20105;-82
2022/01/02 11:33:01;;;;;;;20.20;5.15;;;;;;;12.07;81.02;101039.50;4993309;28;20037;-82